createdAt,value
2016-09-17T00:00:27.762Z,0
2016-09-17T00:01:26.775Z,0
2016-09-17T00:02:26.697Z,0
2016-09-17T00:03:26.631Z,0
2016-09-17T00:04:27.749Z,0
2016-09-17T00:05:26.336Z,0
2016-09-17T00:06:27.609Z,0
2016-09-17T00:07:25.655Z,0
2016-09-17T00:08:26.863Z,0
2016-09-17T00:09:26.390Z,0
2016-09-17T00:10:27.101Z,0
2016-09-17T00:11:28.661Z,0
2016-09-17T00:12:27.310Z,0
2016-09-17T00:13:27.495Z,0
2016-09-17T00:14:27.931Z,0
2016-09-17T00:15:26.661Z,0
2016-09-17T00:16:29.445Z,0
2016-09-17T00:17:27.748Z,0
2016-09-17T00:18:27.428Z,0
2016-09-17T00:19:29.000Z,0
2016-09-17T00:20:27.326Z,0
2016-09-17T00:21:28.571Z,0
2016-09-17T00:22:27.401Z,0
2016-09-17T00:23:27.496Z,0
2016-09-17T00:24:29.530Z,0
2016-09-17T00:25:28.931Z,0
2016-09-17T00:26:27.534Z,0
2016-09-17T00:27:28.318Z,0
2016-09-17T00:28:26.284Z,0
2016-09-17T00:29:27.644Z,0
2016-09-17T00:30:29.198Z,0
2016-09-17T00:31:30.054Z,0
2016-09-17T00:32:29.979Z,0
2016-09-17T00:33:26.402Z,0
2016-09-17T00:34:29.336Z,0
2016-09-17T00:35:27.271Z,0
2016-09-17T00:36:27.437Z,0
2016-09-17T00:37:27.927Z,0
2016-09-17T00:38:27.536Z,0
2016-09-17T00:39:26.890Z,0
2016-09-17T00:40:27.703Z,0
2016-09-17T00:41:29.709Z,0
2016-09-17T00:42:29.084Z,0
2016-09-17T00:43:26.745Z,0
2016-09-17T00:44:27.446Z,0
2016-09-17T00:45:27.122Z,0
2016-09-17T00:46:27.890Z,0
2016-09-17T00:47:28.524Z,0
2016-09-17T00:48:29.779Z,0
2016-09-17T00:49:29.455Z,0
2016-09-17T00:50:29.137Z,0
2016-09-17T00:51:27.274Z,0
2016-09-17T00:52:27.968Z,0
2016-09-17T00:53:28.639Z,0
2016-09-17T00:54:28.574Z,0
2016-09-17T00:55:27.644Z,0
2016-09-17T00:56:28.894Z,0
2016-09-17T00:57:29.425Z,0
2016-09-17T00:58:27.589Z,0
2016-09-17T00:59:28.189Z,0
2016-09-17T01:00:28.225Z,0
2016-09-17T01:01:28.573Z,0
2016-09-17T01:02:27.884Z,0
2016-09-17T01:03:28.348Z,0
2016-09-17T01:04:28.539Z,0
2016-09-17T01:05:27.685Z,0
2016-09-17T01:06:29.000Z,0
2016-09-17T01:07:28.824Z,0
2016-09-17T01:08:30.401Z,0
2016-09-17T01:09:29.062Z,0
2016-09-17T01:10:28.795Z,0
2016-09-17T01:11:28.130Z,0
2016-09-17T01:12:28.617Z,0
2016-09-17T01:13:27.375Z,0
2016-09-17T01:14:27.497Z,0
2016-09-17T01:15:28.149Z,0
2016-09-17T01:16:28.212Z,0
2016-09-17T01:17:27.874Z,0
2016-09-17T01:18:27.788Z,0
2016-09-17T01:19:27.732Z,0
2016-09-17T01:20:28.939Z,0
2016-09-17T01:21:30.430Z,0
2016-09-17T01:22:30.077Z,0
2016-09-17T01:23:29.189Z,0
2016-09-17T01:24:27.860Z,0
2016-09-17T01:25:31.049Z,0
2016-09-17T01:26:27.896Z,0
2016-09-17T01:27:27.498Z,0
2016-09-17T01:28:30.994Z,0
2016-09-17T01:29:30.635Z,0
2016-09-17T01:30:29.660Z,0
2016-09-17T01:31:29.556Z,0
2016-09-17T01:32:29.152Z,0
2016-09-17T01:33:28.638Z,0
2016-09-17T01:34:28.503Z,0
2016-09-17T01:35:31.610Z,0
2016-09-17T01:36:29.608Z,0
2016-09-17T01:37:30.209Z,0
2016-09-17T01:38:28.768Z,0
2016-09-17T01:39:28.781Z,0
2016-09-17T01:40:28.935Z,0
2016-09-17T01:41:27.927Z,0
2016-09-17T01:42:30.083Z,0
2016-09-17T01:43:28.962Z,0
2016-09-17T01:44:29.526Z,0
2016-09-17T01:45:30.074Z,0
2016-09-17T01:46:29.472Z,0
2016-09-17T01:47:30.015Z,0
2016-09-17T01:48:28.813Z,0
2016-09-17T01:49:28.892Z,0
2016-09-17T01:50:28.693Z,0
2016-09-17T01:51:29.598Z,0
2016-09-17T01:52:29.036Z,0
2016-09-17T01:53:34.138Z,0
2016-09-17T01:54:28.658Z,0
2016-09-17T01:55:30.205Z,0
2016-09-17T01:56:29.488Z,0
2016-09-17T01:57:29.298Z,0
2016-09-17T01:58:31.644Z,0
2016-09-17T01:59:30.017Z,0
2016-09-17T02:00:29.703Z,0
2016-09-17T02:01:30.100Z,0
2016-09-17T02:02:29.045Z,0
2016-09-17T02:03:30.502Z,0
2016-09-17T02:04:29.645Z,0
2016-09-17T02:05:30.669Z,0
2016-09-17T02:06:30.724Z,0
2016-09-17T02:07:31.051Z,0
2016-09-17T02:08:31.503Z,0
2016-09-17T02:09:29.462Z,0
2016-09-17T02:10:29.281Z,0
2016-09-17T02:11:27.822Z,0
2016-09-17T02:12:29.460Z,0
2016-09-17T02:13:29.460Z,0
2016-09-17T02:14:30.202Z,0
2016-09-17T02:15:29.406Z,0
2016-09-17T02:16:29.746Z,0
2016-09-17T02:17:28.905Z,0
2016-09-17T02:18:30.276Z,0
2016-09-17T02:19:29.314Z,0
2016-09-17T02:20:29.753Z,0
2016-09-17T02:21:29.604Z,0
2016-09-17T02:22:30.507Z,0
2016-09-17T02:23:30.027Z,0
2016-09-17T02:24:30.015Z,0
2016-09-17T02:25:29.659Z,0
2016-09-17T02:26:30.685Z,0
2016-09-17T02:27:29.327Z,0
2016-09-17T02:28:30.238Z,0
2016-09-17T02:29:29.207Z,0
2016-09-17T02:30:30.988Z,0
2016-09-17T02:31:29.531Z,0
2016-09-17T02:32:30.528Z,0
2016-09-17T02:33:29.196Z,0
2016-09-17T02:34:33.061Z,0
2016-09-17T02:35:29.385Z,0
2016-09-17T02:36:29.692Z,0
2016-09-17T02:37:29.872Z,0
2016-09-17T02:38:29.988Z,0
2016-09-17T02:39:28.809Z,0
2016-09-17T02:40:29.982Z,0
2016-09-17T02:41:30.175Z,0
2016-09-17T02:42:31.840Z,0
2016-09-17T02:43:31.639Z,0
2016-09-17T02:44:30.838Z,0
2016-09-17T02:45:30.094Z,0
2016-09-17T02:46:30.471Z,0
2016-09-17T02:47:32.574Z,0
2016-09-17T02:48:29.261Z,0
2016-09-17T02:49:30.160Z,0
2016-09-17T02:50:29.935Z,0
2016-09-17T02:51:30.133Z,0
2016-09-17T02:52:30.707Z,0
2016-09-17T02:53:31.792Z,0
2016-09-17T02:54:30.316Z,0
2016-09-17T02:55:30.583Z,0
2016-09-17T02:56:29.843Z,0
2016-09-17T02:57:30.802Z,0
2016-09-17T02:58:31.656Z,0
2016-09-17T02:59:30.839Z,0
2016-09-17T03:00:29.798Z,0
2016-09-17T03:01:30.569Z,0
2016-09-17T03:02:30.216Z,0
2016-09-17T03:03:32.024Z,0
2016-09-17T03:04:31.391Z,0
2016-09-17T03:05:30.226Z,0
2016-09-17T03:06:31.371Z,0
2016-09-17T03:07:31.547Z,0
2016-09-17T03:08:31.522Z,0
2016-09-17T03:09:31.485Z,0
2016-09-17T03:10:30.860Z,0
2016-09-17T03:11:31.316Z,0
2016-09-17T03:12:32.352Z,0
2016-09-17T03:13:31.356Z,0
2016-09-17T03:14:30.168Z,0
2016-09-17T03:15:31.822Z,0
2016-09-17T03:16:31.128Z,0
2016-09-17T03:17:33.202Z,0
2016-09-17T03:18:31.238Z,0
2016-09-17T03:19:30.856Z,0
2016-09-17T03:20:30.864Z,0
2016-09-17T03:21:30.192Z,0
2016-09-17T03:22:30.869Z,0
2016-09-17T03:23:31.449Z,0
2016-09-17T03:24:30.818Z,0
2016-09-17T03:25:32.194Z,0
2016-09-17T03:26:29.907Z,0
2016-09-17T03:27:30.402Z,0
2016-09-17T03:28:33.156Z,0
2016-09-17T03:29:32.392Z,0
2016-09-17T03:30:31.535Z,0
2016-09-17T03:31:31.509Z,0
2016-09-17T03:32:32.414Z,0
2016-09-17T03:33:32.284Z,0
2016-09-17T03:34:31.049Z,0
2016-09-17T03:35:32.351Z,0
2016-09-17T03:36:33.230Z,0
2016-09-17T03:37:31.447Z,0
2016-09-17T03:38:32.014Z,0
2016-09-17T03:39:30.435Z,0
2016-09-17T03:40:32.623Z,0
2016-09-17T03:41:32.403Z,0
2016-09-17T03:42:31.720Z,0
2016-09-17T03:43:31.593Z,0
2016-09-17T03:44:32.082Z,0
2016-09-17T03:45:32.607Z,0
2016-09-17T03:46:30.541Z,0
2016-09-17T03:47:32.348Z,0
2016-09-17T03:48:32.911Z,0
2016-09-17T03:49:30.537Z,0
2016-09-17T03:50:31.143Z,0
2016-09-17T03:51:31.896Z,0
2016-09-17T03:52:31.634Z,0
2016-09-17T03:53:30.957Z,0
2016-09-17T03:54:31.117Z,0
2016-09-17T03:55:32.694Z,0
2016-09-17T03:56:33.251Z,0
2016-09-17T03:57:31.940Z,0
2016-09-17T03:58:31.761Z,0
2016-09-17T03:59:33.546Z,0
2016-09-17T04:00:33.172Z,0
2016-09-17T04:01:30.979Z,0
2016-09-17T04:02:32.076Z,0
2016-09-17T04:03:31.753Z,0
2016-09-17T04:04:32.569Z,0
2016-09-17T04:05:30.547Z,0
2016-09-17T04:06:32.543Z,0
2016-09-17T04:07:32.377Z,0
2016-09-17T04:08:32.880Z,0
2016-09-17T04:09:33.051Z,0
2016-09-17T04:10:32.421Z,0
2016-09-17T04:11:32.096Z,0
2016-09-17T04:12:33.325Z,0
2016-09-17T04:13:30.902Z,0
2016-09-17T04:14:32.328Z,0
2016-09-17T04:15:30.942Z,0
2016-09-17T04:16:34.897Z,0
2016-09-17T04:17:31.690Z,0
2016-09-17T04:18:32.019Z,0
2016-09-17T04:19:31.253Z,0
2016-09-17T04:20:31.667Z,0
2016-09-17T04:21:33.048Z,0
2016-09-17T04:22:33.013Z,0
2016-09-17T04:23:32.462Z,0
2016-09-17T04:24:30.335Z,0
2016-09-17T04:25:33.926Z,0
2016-09-17T04:26:33.223Z,0
2016-09-17T04:27:32.352Z,0
2016-09-17T04:28:32.280Z,0
2016-09-17T04:29:33.342Z,0
2016-09-17T04:30:30.863Z,0
2016-09-17T04:31:32.510Z,4
2016-09-17T04:32:32.688Z,4
2016-09-17T04:33:33.276Z,4
2016-09-17T04:34:32.068Z,4
2016-09-17T04:35:31.197Z,4
2016-09-17T04:36:33.169Z,8
2016-09-17T04:37:34.007Z,8
2016-09-17T04:38:33.940Z,12
2016-09-17T04:39:32.933Z,12
2016-09-17T04:40:33.008Z,12
2016-09-17T04:41:34.832Z,16
2016-09-17T04:42:32.186Z,20
2016-09-17T04:43:32.740Z,20
2016-09-17T04:44:32.620Z,24
2016-09-17T04:45:34.559Z,28
2016-09-17T04:46:33.175Z,36
2016-09-17T04:47:32.872Z,44
2016-09-17T04:48:32.665Z,48
2016-09-17T04:49:34.704Z,56
2016-09-17T04:50:34.105Z,64
2016-09-17T04:51:33.072Z,72
2016-09-17T04:52:32.916Z,84
2016-09-17T04:53:32.882Z,92
2016-09-17T04:54:34.316Z,104
2016-09-17T04:55:33.477Z,116
2016-09-17T04:56:32.844Z,124
2016-09-17T04:57:32.540Z,136
2016-09-17T04:58:32.913Z,148
2016-09-17T04:59:34.482Z,164
2016-09-17T05:00:34.647Z,176
2016-09-17T05:01:33.993Z,188
2016-09-17T05:02:33.204Z,204
2016-09-17T05:03:34.293Z,228
2016-09-17T05:04:34.099Z,252
2016-09-17T05:05:32.524Z,268
2016-09-17T05:06:33.790Z,284
2016-09-17T05:07:33.655Z,284
2016-09-17T05:08:33.329Z,272
2016-09-17T05:09:32.853Z,260
2016-09-17T05:10:33.332Z,256
2016-09-17T05:11:32.773Z,264
2016-09-17T05:12:34.274Z,272
2016-09-17T05:13:32.656Z,288
2016-09-17T05:14:33.342Z,316
2016-09-17T05:15:33.278Z,344
2016-09-17T05:16:34.285Z,380
2016-09-17T05:17:33.667Z,412
2016-09-17T05:18:34.135Z,448
2016-09-17T05:19:34.184Z,488
2016-09-17T05:20:32.931Z,548
2016-09-17T05:21:33.204Z,640
2016-09-17T05:22:34.755Z,776
2016-09-17T05:23:34.391Z,924
2016-09-17T05:24:35.077Z,1060
2016-09-17T05:25:33.951Z,1160
2016-09-17T05:26:34.333Z,1256
2016-09-17T05:27:32.967Z,1352
2016-09-17T05:28:34.015Z,1448
2016-09-17T05:29:34.836Z,1552
2016-09-17T05:30:33.928Z,1648
2016-09-17T05:31:33.865Z,1752
2016-09-17T05:32:35.485Z,1848
2016-09-17T05:33:34.339Z,1932
2016-09-17T05:34:31.889Z,1996
2016-09-17T05:35:33.703Z,2032
2016-09-17T05:36:32.925Z,2032
2016-09-17T05:37:34.535Z,2024
2016-09-17T05:38:33.385Z,2044
2016-09-17T05:39:33.330Z,2072
2016-09-17T05:40:33.227Z,2092
2016-09-17T05:41:35.510Z,2136
2016-09-17T05:42:32.550Z,2208
2016-09-17T05:43:33.941Z,2328
2016-09-17T05:44:33.067Z,2488
2016-09-17T05:45:34.511Z,2660
2016-09-17T05:46:35.951Z,2848
2016-09-17T05:47:35.593Z,3020
2016-09-17T05:48:34.136Z,3144
2016-09-17T05:49:35.465Z,3264
2016-09-17T05:50:33.252Z,3356
2016-09-17T05:51:34.904Z,3436
2016-09-17T05:52:34.361Z,3508
2016-09-17T05:53:35.461Z,3592
2016-09-17T05:54:35.039Z,3660
2016-09-17T05:55:34.829Z,3740
2016-09-17T05:56:34.006Z,3884
2016-09-17T05:57:34.966Z,4032
2016-09-17T05:58:35.404Z,4128
2016-09-17T05:59:34.027Z,4240
2016-09-17T06:00:33.693Z,4428
2016-09-17T06:01:34.599Z,4660
2016-09-17T06:02:35.581Z,4792
2016-09-17T06:03:33.992Z,4844
2016-09-17T06:04:34.180Z,4876
2016-09-17T06:05:34.574Z,4888
2016-09-17T06:06:34.110Z,4840
2016-09-17T06:07:36.302Z,4816
2016-09-17T06:08:34.683Z,4816
2016-09-17T06:09:34.636Z,4796
2016-09-17T06:10:36.272Z,4748
2016-09-17T06:11:33.501Z,4648
2016-09-17T06:12:34.637Z,4552
2016-09-17T06:13:34.719Z,4460
2016-09-17T06:14:34.671Z,4392
2016-09-17T06:15:36.264Z,4340
2016-09-17T06:16:36.434Z,4336
2016-09-17T06:17:34.416Z,4388
2016-09-17T06:18:34.726Z,4468
2016-09-17T06:19:33.790Z,4552
2016-09-17T06:20:33.796Z,4600
2016-09-17T06:21:36.560Z,4588
2016-09-17T06:22:34.885Z,4500
2016-09-17T06:23:34.056Z,4424
2016-09-17T06:24:34.497Z,4404
2016-09-17T06:25:35.116Z,4460
2016-09-17T06:26:38.753Z,4564
2016-09-17T06:27:34.018Z,4668
2016-09-17T06:28:34.368Z,4796
2016-09-17T06:29:35.903Z,4828
2016-09-17T06:30:34.235Z,4716
2016-09-17T06:31:35.164Z,4468
2016-09-17T06:32:34.007Z,4132
2016-09-17T06:33:35.648Z,3732
2016-09-17T06:34:34.883Z,3336
2016-09-17T06:35:35.414Z,3020
2016-09-17T06:36:34.775Z,2812
2016-09-17T06:37:35.545Z,2712
2016-09-17T06:38:34.723Z,2708
2016-09-17T06:39:36.085Z,2760
2016-09-17T06:40:34.748Z,2852
2016-09-17T06:41:35.047Z,2980
2016-09-17T06:42:34.640Z,3116
2016-09-17T06:43:34.579Z,3228
2016-09-17T06:44:35.232Z,3288
2016-09-17T06:45:34.063Z,3260
2016-09-17T06:46:35.446Z,3076
2016-09-17T06:47:35.122Z,2764
2016-09-17T06:48:36.909Z,2440
2016-09-17T06:49:36.555Z,2256
2016-09-17T06:50:36.248Z,2248
2016-09-17T06:51:35.023Z,2412
2016-09-17T06:52:36.452Z,2744
2016-09-17T06:53:36.255Z,3152
2016-09-17T06:54:35.317Z,3568
2016-09-17T06:55:35.419Z,3984
2016-09-17T06:56:35.347Z,4308
2016-09-17T06:57:34.847Z,4560
2016-09-17T06:58:35.157Z,4688
2016-09-17T06:59:35.369Z,4728
2016-09-17T07:00:37.056Z,4760
2016-09-17T07:01:35.486Z,4824
2016-09-17T07:02:35.641Z,4944
2016-09-17T07:03:35.723Z,5016
2016-09-17T07:04:35.318Z,5064
2016-09-17T07:05:34.316Z,5124
2016-09-17T07:06:36.562Z,5260
2016-09-17T07:07:34.836Z,5536
2016-09-17T07:08:36.572Z,5932
2016-09-17T07:09:35.849Z,6448
2016-09-17T07:10:35.351Z,7036
2016-09-17T07:11:36.207Z,7560
2016-09-17T07:12:36.895Z,7980
2016-09-17T07:13:35.594Z,8408
2016-09-17T07:14:37.005Z,8904
2016-09-17T07:15:37.063Z,9416
2016-09-17T07:16:36.099Z,9824
2016-09-17T07:17:35.919Z,10092
2016-09-17T07:18:35.785Z,10176
2016-09-17T07:19:37.060Z,9968
2016-09-17T07:20:35.941Z,9348
2016-09-17T07:21:38.966Z,8580
2016-09-17T07:22:36.954Z,8004
2016-09-17T07:23:35.225Z,7544
2016-09-17T07:24:36.555Z,7336
2016-09-17T07:25:36.703Z,7292
2016-09-17T07:26:36.496Z,7228
2016-09-17T07:27:36.739Z,7232
2016-09-17T07:28:37.449Z,7348
2016-09-17T07:29:36.836Z,7512
2016-09-17T07:30:35.215Z,7636
2016-09-17T07:31:37.309Z,7884
2016-09-17T07:32:37.409Z,8024
2016-09-17T07:33:37.285Z,7852
2016-09-17T07:34:37.398Z,7472
2016-09-17T07:35:36.846Z,7220
2016-09-17T07:36:35.216Z,7380
2016-09-17T07:37:37.291Z,7524
2016-09-17T07:38:36.874Z,7360
2016-09-17T07:39:35.783Z,7108
2016-09-17T07:40:36.309Z,6560
2016-09-17T07:41:34.718Z,5540
2016-09-17T07:42:38.853Z,4936
2016-09-17T07:43:37.698Z,4948
2016-09-17T07:44:36.649Z,5328
2016-09-17T07:45:36.216Z,5796
2016-09-17T07:46:35.208Z,5732
2016-09-17T07:47:36.849Z,5396
2016-09-17T07:48:36.068Z,5420
2016-09-17T07:49:38.476Z,5892
2016-09-17T07:50:37.269Z,6548
2016-09-17T07:51:36.112Z,6904
2016-09-17T07:52:37.076Z,6964
2016-09-17T07:53:37.939Z,7080
2016-09-17T07:54:38.170Z,7248
2016-09-17T07:55:37.464Z,7628
2016-09-17T07:56:36.884Z,8000
2016-09-17T07:57:36.305Z,8388
2016-09-17T07:58:37.629Z,9072
2016-09-17T07:59:38.427Z,9596
2016-09-17T08:00:36.259Z,9852
2016-09-17T08:01:35.734Z,9748
2016-09-17T08:02:36.332Z,9372
2016-09-17T08:03:36.588Z,9272
2016-09-17T08:04:36.915Z,9096
2016-09-17T08:05:40.090Z,8688
2016-09-17T08:06:37.721Z,8764
2016-09-17T08:07:38.374Z,8652
2016-09-17T08:08:37.174Z,8468
2016-09-17T08:09:39.307Z,8680
2016-09-17T08:10:37.164Z,8736
2016-09-17T08:11:37.451Z,8244
2016-09-17T08:12:38.206Z,7448
2016-09-17T08:13:37.156Z,7108
2016-09-17T08:14:37.119Z,7148
2016-09-17T08:15:42.092Z,7632
2016-09-17T08:16:39.272Z,8228
2016-09-17T08:17:39.147Z,8464
2016-09-17T08:18:37.714Z,8560
2016-09-17T08:19:38.118Z,8844
2016-09-17T08:20:38.294Z,8508
2016-09-17T08:21:38.719Z,7672
2016-09-17T08:22:38.275Z,7260
2016-09-17T08:23:38.611Z,7288
2016-09-17T08:24:38.840Z,7032
2016-09-17T08:25:37.475Z,6508
2016-09-17T08:26:37.574Z,6624
2016-09-17T08:27:38.866Z,7200
2016-09-17T08:28:38.941Z,7428
2016-09-17T08:29:39.387Z,8208
2016-09-17T08:30:38.476Z,8880
2016-09-17T08:31:37.606Z,8936
2016-09-17T08:32:38.548Z,8680
2016-09-17T08:33:39.525Z,9528
2016-09-17T08:34:39.385Z,9952
2016-09-17T08:35:40.283Z,9444
2016-09-17T08:36:38.798Z,8740
2016-09-17T08:37:38.602Z,8124
2016-09-17T08:38:38.985Z,7728
2016-09-17T08:39:37.940Z,7448
2016-09-17T08:40:38.459Z,7144
2016-09-17T08:41:39.555Z,6784
2016-09-17T08:42:40.000Z,6412
2016-09-17T08:43:39.807Z,6060
2016-09-17T08:44:38.977Z,5768
2016-09-17T08:45:40.629Z,5548
2016-09-17T08:46:38.384Z,5416
2016-09-17T08:47:41.945Z,5356
2016-09-17T08:48:38.942Z,5372
2016-09-17T08:49:39.858Z,5468
2016-09-17T08:50:39.401Z,5640
2016-09-17T08:51:37.908Z,5844
2016-09-17T08:52:38.614Z,6036
2016-09-17T08:53:39.144Z,6204
2016-09-17T08:54:40.372Z,6364
2016-09-17T08:55:39.223Z,6436
2016-09-17T08:56:39.391Z,6440
2016-09-17T08:57:38.787Z,6396
2016-09-17T08:58:40.070Z,6324
2016-09-17T08:59:37.292Z,6256
2016-09-17T09:00:37.068Z,6264
2016-09-17T09:01:39.337Z,6264
2016-09-17T09:02:38.502Z,6180
2016-09-17T09:03:39.029Z,5988
2016-09-17T09:04:39.218Z,5876
2016-09-17T09:05:38.464Z,5712
2016-09-17T09:06:38.036Z,5516
2016-09-17T09:07:38.764Z,5280
2016-09-17T09:08:40.226Z,5220
2016-09-17T09:09:40.460Z,5368
2016-09-17T09:10:38.889Z,5376
2016-09-17T09:11:38.680Z,4956
2016-09-17T09:12:39.162Z,4632
2016-09-17T09:13:41.730Z,4464
2016-09-17T09:14:39.068Z,3692
2016-09-17T09:15:40.139Z,3124
2016-09-17T09:16:39.109Z,2932
2016-09-17T09:17:39.068Z,2904
2016-09-17T09:18:39.578Z,3252
2016-09-17T09:19:41.007Z,3596
2016-09-17T09:20:39.137Z,3760
2016-09-17T09:21:40.434Z,3944
2016-09-17T09:22:39.291Z,4724
2016-09-17T09:23:40.460Z,5732
2016-09-17T09:24:39.697Z,6892
2016-09-17T09:25:40.782Z,7528
2016-09-17T09:26:39.390Z,7620
2016-09-17T09:27:39.767Z,7488
2016-09-17T09:28:38.556Z,7528
2016-09-17T09:29:39.440Z,7468
2016-09-17T09:30:40.526Z,7264
2016-09-17T09:31:40.532Z,7188
2016-09-17T09:32:38.315Z,7172
2016-09-17T09:33:40.056Z,7756
2016-09-17T09:34:40.956Z,8240
2016-09-17T09:35:40.273Z,8164
2016-09-17T09:36:39.921Z,8224
2016-09-17T09:37:40.304Z,8216
2016-09-17T09:38:38.973Z,7996
2016-09-17T09:39:39.903Z,7476
2016-09-17T09:40:40.102Z,7016
2016-09-17T09:41:40.784Z,6964
2016-09-17T09:42:42.830Z,7232
2016-09-17T09:43:39.093Z,7492
2016-09-17T09:44:40.223Z,7884
2016-09-17T09:45:40.355Z,8184
2016-09-17T09:46:40.115Z,8204
2016-09-17T09:47:41.787Z,8296
2016-09-17T09:48:41.213Z,8240
2016-09-17T09:49:41.584Z,8032
2016-09-17T09:50:39.869Z,8104
2016-09-17T09:51:40.155Z,8052
2016-09-17T09:52:40.406Z,7880
2016-09-17T09:53:41.599Z,7696
2016-09-17T09:54:40.856Z,7608
2016-09-17T09:55:39.127Z,7804
2016-09-17T09:56:38.870Z,8256
2016-09-17T09:57:38.757Z,8132
2016-09-17T09:58:38.865Z,7964
2016-09-17T09:59:40.488Z,7648
2016-09-17T10:00:38.647Z,8180
2016-09-17T10:01:40.707Z,10212
2016-09-17T10:02:40.039Z,12220
2016-09-17T10:03:40.201Z,14412
2016-09-17T10:04:39.783Z,15952
2016-09-17T10:05:39.181Z,16064
2016-09-17T10:06:40.123Z,15452
2016-09-17T10:07:39.958Z,14048
2016-09-17T10:08:43.507Z,14132
2016-09-17T10:09:40.121Z,13656
2016-09-17T10:10:42.694Z,11896
2016-09-17T10:11:41.950Z,12004
2016-09-17T10:12:40.904Z,11840
2016-09-17T10:13:42.110Z,11628
2016-09-17T10:14:40.709Z,12388
2016-09-17T10:15:41.267Z,12260
2016-09-17T10:16:39.731Z,11632
2016-09-17T10:17:40.117Z,10160
2016-09-17T10:18:41.376Z,10484
2016-09-17T10:19:40.809Z,10936
2016-09-17T10:20:42.889Z,10016
2016-09-17T10:21:40.399Z,9080
2016-09-17T10:22:41.963Z,9388
2016-09-17T10:23:40.566Z,10384
2016-09-17T10:24:41.362Z,10508
2016-09-17T10:25:40.497Z,9956
2016-09-17T10:26:41.815Z,8524
2016-09-17T10:27:40.471Z,7980
2016-09-17T10:28:39.519Z,8648
2016-09-17T10:29:40.848Z,8648
2016-09-17T10:30:40.682Z,7256
2016-09-17T10:31:40.234Z,6204
2016-09-17T10:32:41.614Z,5428
2016-09-17T10:33:41.484Z,5284
2016-09-17T10:34:41.173Z,5824
2016-09-17T10:35:40.868Z,5896
2016-09-17T10:36:40.863Z,6660
2016-09-17T10:37:40.883Z,6896
2016-09-17T10:38:41.297Z,5972
2016-09-17T10:39:43.454Z,5068
2016-09-17T10:40:40.411Z,5136
2016-09-17T10:41:41.899Z,5124
2016-09-17T10:42:41.553Z,4844
2016-09-17T10:43:41.019Z,4780
2016-09-17T10:44:41.150Z,4896
2016-09-17T10:45:40.589Z,5032
2016-09-17T10:46:40.496Z,5244
2016-09-17T10:47:39.315Z,5108
2016-09-17T10:48:41.580Z,5164
2016-09-17T10:49:42.725Z,6164
2016-09-17T10:50:41.210Z,6632
2016-09-17T10:51:41.810Z,7204
2016-09-17T10:52:40.528Z,7500
2016-09-17T10:53:41.810Z,7236
2016-09-17T10:54:40.936Z,6996
2016-09-17T10:55:41.634Z,7044
2016-09-17T10:56:40.014Z,7236
2016-09-17T10:57:44.795Z,7244
2016-09-17T10:58:45.540Z,7068
2016-09-17T10:59:42.579Z,6904
2016-09-17T11:00:40.131Z,6800
2016-09-17T11:01:40.934Z,6720
2016-09-17T11:02:40.973Z,6584
2016-09-17T11:03:40.577Z,6488
2016-09-17T11:04:42.491Z,6524
2016-09-17T11:05:42.529Z,6332
2016-09-17T11:06:43.522Z,5932
2016-09-17T11:07:41.452Z,5016
2016-09-17T11:08:42.158Z,3984
2016-09-17T11:09:41.569Z,3380
2016-09-17T11:10:42.483Z,3360
2016-09-17T11:11:43.915Z,3368
2016-09-17T11:12:40.857Z,3464
2016-09-17T11:13:41.851Z,3656
2016-09-17T11:14:41.501Z,4244
2016-09-17T11:15:42.986Z,4016
2016-09-17T11:16:42.035Z,4564
2016-09-17T11:17:42.233Z,5156
2016-09-17T11:18:42.665Z,4528
2016-09-17T11:19:42.236Z,4324
2016-09-17T11:20:43.572Z,3768
2016-09-17T11:21:42.426Z,3060
2016-09-17T11:22:41.454Z,2908
2016-09-17T11:23:42.829Z,3344
2016-09-17T11:24:40.517Z,3308
2016-09-17T11:25:42.856Z,3224
2016-09-17T11:26:42.857Z,3388
2016-09-17T11:27:42.933Z,3556
2016-09-17T11:28:40.966Z,4304
2016-09-17T11:29:43.293Z,4864
2016-09-17T11:30:43.820Z,4744
2016-09-17T11:31:43.265Z,4216
2016-09-17T11:32:41.655Z,3792
2016-09-17T11:33:42.225Z,3748
2016-09-17T11:34:41.204Z,3888
2016-09-17T11:35:41.730Z,3904
2016-09-17T11:36:43.382Z,3740
2016-09-17T11:37:42.380Z,3644
2016-09-17T11:38:42.662Z,3372
2016-09-17T11:39:41.363Z,3088
2016-09-17T11:40:44.045Z,3592
2016-09-17T11:41:41.691Z,4372
2016-09-17T11:42:41.790Z,4200
2016-09-17T11:43:41.605Z,3736
2016-09-17T11:44:45.339Z,4160
2016-09-17T11:45:42.637Z,4360
2016-09-17T11:46:42.234Z,4092
2016-09-17T11:47:43.430Z,3640
2016-09-17T11:48:43.196Z,3180
2016-09-17T11:49:45.486Z,3028
2016-09-17T11:50:44.543Z,3044
2016-09-17T11:51:43.266Z,3984
2016-09-17T11:52:41.438Z,4984
2016-09-17T11:53:42.744Z,5372
2016-09-17T11:54:42.051Z,5396
2016-09-17T11:55:42.721Z,6056
2016-09-17T11:56:44.890Z,6784
2016-09-17T11:57:42.973Z,6976
2016-09-17T11:58:43.672Z,6484
2016-09-17T11:59:42.730Z,6440
2016-09-17T12:00:42.175Z,6140
2016-09-17T12:01:43.636Z,5956
2016-09-17T12:02:42.933Z,5624
2016-09-17T12:03:43.527Z,5584
2016-09-17T12:04:42.697Z,5860
2016-09-17T12:05:41.931Z,6472
2016-09-17T12:06:45.161Z,6492
2016-09-17T12:07:43.651Z,5512
2016-09-17T12:08:43.732Z,5252
2016-09-17T12:09:43.403Z,5232
2016-09-17T12:10:42.547Z,4852
2016-09-17T12:11:42.520Z,4508
2016-09-17T12:12:44.571Z,4784
2016-09-17T12:13:46.299Z,4852
2016-09-17T12:14:43.095Z,4468
2016-09-17T12:15:44.112Z,3948
2016-09-17T12:16:42.469Z,3708
2016-09-17T12:17:45.554Z,3856
2016-09-17T12:18:44.294Z,4168
2016-09-17T12:19:42.868Z,4308
2016-09-17T12:20:41.807Z,4260
2016-09-17T12:21:43.525Z,4428
2016-09-17T12:22:45.224Z,5208
2016-09-17T12:23:43.810Z,5668
2016-09-17T12:24:43.265Z,6336
2016-09-17T12:25:43.732Z,6704
2016-09-17T12:26:47.062Z,5688
2016-09-17T12:27:43.702Z,5604
2016-09-17T12:28:43.093Z,6416
2016-09-17T12:29:42.046Z,6008
2016-09-17T12:30:43.298Z,4680
2016-09-17T12:31:42.594Z,4528
2016-09-17T12:32:45.654Z,4480
2016-09-17T12:33:41.626Z,4280
2016-09-17T12:34:45.208Z,4788
2016-09-17T12:35:44.407Z,4560
2016-09-17T12:36:42.474Z,4128
2016-09-17T12:37:47.613Z,4676
2016-09-17T12:38:42.880Z,5544
2016-09-17T12:39:44.147Z,5956
2016-09-17T12:40:41.821Z,5720
2016-09-17T12:41:43.222Z,6732
2016-09-17T12:42:42.546Z,6032
2016-09-17T12:43:43.783Z,6140
2016-09-17T12:44:43.308Z,6912
2016-09-17T12:45:42.711Z,6120
2016-09-17T12:46:42.937Z,5280
2016-09-17T12:47:43.306Z,4820
2016-09-17T12:48:45.245Z,6636
2016-09-17T12:49:41.643Z,7368
2016-09-17T12:50:42.196Z,7540
2016-09-17T12:51:43.509Z,6652
2016-09-17T12:52:43.078Z,5828
2016-09-17T12:53:42.579Z,4572
2016-09-17T12:54:44.238Z,4080
2016-09-17T12:55:42.347Z,4136
2016-09-17T12:56:41.967Z,3296
2016-09-17T12:57:43.083Z,2808
2016-09-17T12:58:43.252Z,3032
2016-09-17T12:59:43.412Z,2984
2016-09-17T13:00:42.084Z,2444
2016-09-17T13:01:43.677Z,2472
2016-09-17T13:02:44.412Z,2604
2016-09-17T13:03:42.931Z,2460
2016-09-17T13:04:44.402Z,2600
2016-09-17T13:05:42.244Z,2732
2016-09-17T13:06:42.622Z,3068
2016-09-17T13:07:43.532Z,2928
2016-09-17T13:08:44.283Z,2820
2016-09-17T13:09:42.517Z,3112
2016-09-17T13:10:43.909Z,3160
2016-09-17T13:11:44.891Z,3652
2016-09-17T13:12:43.957Z,4052
2016-09-17T13:13:43.962Z,4004
2016-09-17T13:14:44.902Z,4220
2016-09-17T13:15:43.809Z,4164
2016-09-17T13:16:43.919Z,4560
2016-09-17T13:17:43.882Z,5132
2016-09-17T13:18:45.913Z,5428
2016-09-17T13:19:44.234Z,6164
2016-09-17T13:20:44.776Z,5772
2016-09-17T13:21:42.494Z,5836
2016-09-17T13:22:45.305Z,6020
2016-09-17T13:23:43.039Z,5384
2016-09-17T13:24:42.577Z,5868
2016-09-17T13:25:43.974Z,5892
2016-09-17T13:26:44.405Z,6188
2016-09-17T13:27:43.665Z,6732
2016-09-17T13:28:43.760Z,6536
2016-09-17T13:29:43.661Z,5864
2016-09-17T13:30:43.563Z,5420
2016-09-17T13:31:43.786Z,4712
2016-09-17T13:32:43.506Z,4104
2016-09-17T13:33:43.712Z,4188
2016-09-17T13:34:44.746Z,3768
2016-09-17T13:35:43.719Z,3980
2016-09-17T13:36:44.270Z,3620
2016-09-17T13:37:44.686Z,2992
2016-09-17T13:38:43.439Z,2700
2016-09-17T13:39:45.227Z,2508
2016-09-17T13:40:43.087Z,2456
2016-09-17T13:41:43.706Z,2520
2016-09-17T13:42:44.786Z,2996
2016-09-17T13:43:43.404Z,3596
2016-09-17T13:44:44.447Z,3632
2016-09-17T13:45:44.397Z,3768
2016-09-17T13:46:44.246Z,3996
2016-09-17T13:47:44.436Z,4920